Oriibu — JD2579 — position and weather

sailwx.info

Track history (hours):
 
Tides and Currents Weather Stations Pressure Air Temp Water Temp Dewpoint Dewpoint Depression Visibility Wind Speed Wind Dir Waves Ship Positions

Oriibu

Last reported at 2015-Sep-01 05:21 UTC. Time now 2015-Sep-01 06:05 UTC.
Position N 34°42' E 135°15'.

Length 75 m; draft 4.2 m.

MMSI: 431000426.

Date/timePositionNaut miles runAvg speedWind from/ knotsBaromVisibWave heightAir tempDewpointWater temp
2015-Sep-01 05:21N 34°42' E 135°15'0 0.1
2015-Sep-01 04:33N 34°42' E 135°15'0 0.0
2015-Sep-01 03:27N 34°42' E 135°15'7 7.7
2015-Sep-01 02:33N 34°36' E 135°10'1310.5
2015-Sep-01 01:22N 34°37' E 134°55'  
2015-Aug-29 05:32N 35°12' E 139°45'1111.6
2015-Aug-29 04:33N 35°23' E 139°42'1312.6
2015-Aug-29 03:33N 35°31' E 139°54'10 9.5
2015-Aug-29 02:29N 35°41' E 139°59'0 0.0
2015-Aug-29 01:29N 35°41' E 139°59'0 0.0
2015-Aug-29 00:29N 35°41' E 139°59'0 0.0
2015-Aug-28 23:11N 35°41' E 139°59'0 0.0
2015-Aug-28 22:29N 35°41' E 139°59'0 0.0
2015-Aug-28 21:29N 35°41' E 139°59'0 0.0
2015-Aug-28 20:29N 35°41' E 139°59'0 0.0
2015-Aug-28 19:29N 35°41' E 139°59'0 0.0
2015-Aug-28 18:23N 35°41' E 139°59'0 0.0
2015-Aug-28 17:29N 35°41' E 139°59'0 0.0
2015-Aug-28 16:17N 35°41' E 139°59'0 0.0
2015-Aug-28 15:29N 35°41' E 139°59'0 0.0
2015-Aug-28 14:17N 35°41' E 139°59'0 0.0
2015-Aug-28 13:05N 35°41' E 139°59'0 0.0
2015-Aug-28 12:29N 35°41' E 139°59'0 0.0
2015-Aug-28 10:29N 35°41' E 139°59'0 0.0
2015-Aug-28 09:29N 35°41' E 139°59'0 0.0
2015-Aug-28 08:17N 35°41' E 139°59'0 0.0
2015-Aug-28 07:29N 35°41' E 139°59'0 0.0
2015-Aug-28 06:26N 35°41' E 139°59'4 3.4
2015-Aug-28 05:21N 35°37' E 139°58'0 0.0
2015-Aug-28 04:33N 35°37' E 139°58'0 0.0
2015-Aug-28 03:33N 35°37' E 139°58'0 0.1
2015-Aug-28 02:33N 35°37' E 139°58'0 0.0
2015-Aug-28 01:21N 35°37' E 139°58'0 0.0
2015-Aug-28 00:33N 35°37' E 139°58'0 0.0
2015-Aug-27 23:27N 35°37' E 139°58'0 0.0
2015-Aug-27 22:21N 35°37' E 139°58'0 0.1
2015-Aug-27 21:27N 35°37' E 139°58'0 0.0
2015-Aug-27 20:27N 35°37' E 139°58'0 0.0
2015-Aug-27 19:15N 35°37' E 139°58'0 0.0
2015-Aug-27 18:15N 35°37' E 139°58'0 0.0
2015-Aug-27 17:33N 35°37' E 139°58'0 0.0
2015-Aug-27 16:15N 35°37' E 139°58'0 0.0
2015-Aug-27 15:33N 35°37' E 139°58'0 0.0
2015-Aug-27 14:27N 35°37' E 139°58'0 0.0
2015-Aug-27 13:27N 35°37' E 139°58'0 0.0
2015-Aug-27 12:33N 35°37' E 139°58'0 0.0
2015-Aug-27 10:27N 35°37' E 139°58'0 0.0
2015-Aug-27 09:27N 35°37' E 139°58'0 0.1
2015-Aug-27 08:33N 35°37' E 139°58'1111.3
2015-Aug-27 07:33N 35°28' E 139°51'1110.7
2015-Aug-27 06:33N 35°18' E 139°45'1110.8
2015-Aug-27 05:33N 35°07' E 139°45'  
2015-Aug-22 18:27N 34°54' E 139°24'1111.4
2015-Aug-22 17:30N 35°01' E 139°34'1111.9
2015-Aug-22 16:33N 35°09' E 139°44'1111.1
2015-Aug-22 15:33N 35°20' E 139°42'9 8.2
2015-Aug-22 14:31N 35°28' E 139°42'0 0.0
2015-Aug-22 13:28N 35°28' E 139°42'0 0.0
2015-Aug-22 12:28N 35°28' E 139°42'0 0.0
2015-Aug-22 11:31N 35°28' E 139°42'0 0.0
2015-Aug-22 10:31N 35°28' E 139°42'0 0.0
2015-Aug-22 09:31N 35°28' E 139°42'0 0.0
2015-Aug-22 08:31N 35°28' E 139°42'0 0.0
2015-Aug-22 07:31N 35°28' E 139°42'0 0.0
2015-Aug-22 06:31N 35°28' E 139°42'0 0.0
2015-Aug-22 05:31N 35°28' E 139°42'  
Track history (hours):
 
Tides and Currents Weather Stations Pressure Air Temp Water Temp Dewpoint Dewpoint Depression Visibility Wind Speed Wind Dir Waves Ship Positions

Oriibu

Last reported at 2015-Sep-01 05:21 UTC. Time now 2015-Sep-01 06:05 UTC.
Position N 34°42' E 135°15'.

Length 75 m; draft 4.2 m.

MMSI: 431000426.

Date/timePositionNaut miles runAvg speedWind from/ knotsBaromVisibWave heightAir tempDewpointWater temp
2015-Sep-01 05:21N 34°42' E 135°15'0 0.1
2015-Sep-01 04:33N 34°42' E 135°15'0 0.0
2015-Sep-01 03:27N 34°42' E 135°15'7 7.7
2015-Sep-01 02:33N 34°36' E 135°10'1310.5
2015-Sep-01 01:22N 34°37' E 134°55'  
2015-Aug-29 05:32N 35°12' E 139°45'1111.6
2015-Aug-29 04:33N 35°23' E 139°42'1312.6
2015-Aug-29 03:33N 35°31' E 139°54'10 9.5
2015-Aug-29 02:29N 35°41' E 139°59'0 0.0
2015-Aug-29 01:29N 35°41' E 139°59'0 0.0
2015-Aug-29 00:29N 35°41' E 139°59'0 0.0
2015-Aug-28 23:11N 35°41' E 139°59'0 0.0
2015-Aug-28 22:29N 35°41' E 139°59'0 0.0
2015-Aug-28 21:29N 35°41' E 139°59'0 0.0
2015-Aug-28 20:29N 35°41' E 139°59'0 0.0
2015-Aug-28 19:29N 35°41' E 139°59'0 0.0
2015-Aug-28 18:23N 35°41' E 139°59'0 0.0
2015-Aug-28 17:29N 35°41' E 139°59'0 0.0
2015-Aug-28 16:17N 35°41' E 139°59'0 0.0
2015-Aug-28 15:29N 35°41' E 139°59'0 0.0
2015-Aug-28 14:17N 35°41' E 139°59'0 0.0
2015-Aug-28 13:05N 35°41' E 139°59'0 0.0
2015-Aug-28 12:29N 35°41' E 139°59'0 0.0
2015-Aug-28 10:29N 35°41' E 139°59'0 0.0
2015-Aug-28 09:29N 35°41' E 139°59'0 0.0
2015-Aug-28 08:17N 35°41' E 139°59'0 0.0
2015-Aug-28 07:29N 35°41' E 139°59'0 0.0
2015-Aug-28 06:26N 35°41' E 139°59'4 3.4
2015-Aug-28 05:21N 35°37' E 139°58'0 0.0
2015-Aug-28 04:33N 35°37' E 139°58'0 0.0
2015-Aug-28 03:33N 35°37' E 139°58'0 0.1
2015-Aug-28 02:33N 35°37' E 139°58'0 0.0
2015-Aug-28 01:21N 35°37' E 139°58'0 0.0
2015-Aug-28 00:33N 35°37' E 139°58'0 0.0
2015-Aug-27 23:27N 35°37' E 139°58'0 0.0
2015-Aug-27 22:21N 35°37' E 139°58'0 0.1
2015-Aug-27 21:27N 35°37' E 139°58'0 0.0
2015-Aug-27 20:27N 35°37' E 139°58'0 0.0
2015-Aug-27 19:15N 35°37' E 139°58'0 0.0
2015-Aug-27 18:15N 35°37' E 139°58'0 0.0
2015-Aug-27 17:33N 35°37' E 139°58'0 0.0
2015-Aug-27 16:15N 35°37' E 139°58'0 0.0
2015-Aug-27 15:33N 35°37' E 139°58'0 0.0
2015-Aug-27 14:27N 35°37' E 139°58'0 0.0
2015-Aug-27 13:27N 35°37' E 139°58'0 0.0
2015-Aug-27 12:33N 35°37' E 139°58'0 0.0
2015-Aug-27 10:27N 35°37' E 139°58'0 0.0
2015-Aug-27 09:27N 35°37' E 139°58'0 0.1
2015-Aug-27 08:33N 35°37' E 139°58'1111.3
2015-Aug-27 07:33N 35°28' E 139°51'1110.7
2015-Aug-27 06:33N 35°18' E 139°45'1110.8
2015-Aug-27 05:33N 35°07' E 139°45'  
2015-Aug-22 18:27N 34°54' E 139°24'1111.4
2015-Aug-22 17:30N 35°01' E 139°34'1111.9
2015-Aug-22 16:33N 35°09' E 139°44'1111.1
2015-Aug-22 15:33N 35°20' E 139°42'9 8.2
2015-Aug-22 14:31N 35°28' E 139°42'0 0.0
2015-Aug-22 13:28N 35°28' E 139°42'0 0.0
2015-Aug-22 12:28N 35°28' E 139°42'0 0.0
2015-Aug-22 11:31N 35°28' E 139°42'0 0.0
2015-Aug-22 10:31N 35°28' E 139°42'0 0.0
2015-Aug-22 09:31N 35°28' E 139°42'0 0.0
2015-Aug-22 08:31N 35°28' E 139°42'0 0.0
2015-Aug-22 07:31N 35°28' E 139°42'0 0.0
2015-Aug-22 06:31N 35°28' E 139°42'0 0.0
2015-Aug-22 05:31N 35°28' E 139°42'  

Dump ship's entire track history